Time;durP1;ratioP1;P1;durP2;ratioP2;P2;SDS_P1;SDS_P2;PMS_P1;PMS_P2;Temp;Humidity;BMP_temperature;BMP_pressure;BME280_temperature;BME280_humidity;BME280_pressure;Samples;Min_cycle;Max_cycle;Signal;HPM_P1;HPM_P2
2021/04/02 00:01:42;;;;;;;4.50;2.03;;;;;;;6.63;69.51;101013.32;5065269;56;1136653;-82
2021/04/02 00:07:08;;;;;;;2.40;2.10;;;;;;;6.68;69.26;101007.83;5065758;56;1134425;-79
2021/04/02 00:12:34;;;;;;;2.57;2.07;;;;;;;6.61;69.15;101008.61;5066198;57;1134887;-80
2021/04/02 00:18:00;;;;;;;2.30;1.70;;;;;;;6.54;68.89;101007.25;5066530;57;1136660;-79
2021/04/02 00:23:26;;;;;;;2.83;1.57;;;;;;;6.45;69.04;101022.17;5064870;57;1134506;-79
2021/04/02 00:28:54;;;;;;;1.45;1.35;;;;;;;6.35;68.48;101017.03;5066003;57;1134603;-76
2021/04/02 00:34:20;;;;;;;1.90;1.43;;;;;;;6.31;67.93;101022.90;5064745;56;1136651;-77
2021/04/02 00:39:46;;;;;;;1.80;1.70;;;;;;;6.16;67.86;101035.50;5066128;57;1134820;-77
2021/04/02 00:45:13;;;;;;;3.83;1.80;;;;;;;6.12;67.85;101048.86;5041776;57;1134815;-78
2021/04/02 00:50:49;;;;;;;2.27;2.00;;;;;;;6.04;68.05;101041.39;5017720;56;1134628;-80
2021/04/02 00:56:16;;;;;;;8.10;2.33;;;;;;;6.04;68.18;101043.16;5016914;57;1134851;-81
2021/04/02 01:01:42;;;;;;;2.10;1.90;;;;;;;5.99;68.13;101052.57;5012684;57;1134551;-78
2021/04/02 01:07:09;;;;;;;5.23;2.90;;;;;;;6.02;68.27;101064.23;5011513;57;1134641;-77
2021/04/02 01:12:36;;;;;;;2.90;2.63;;;;;;;5.97;67.09;101081.52;5009839;57;1134480;-76
2021/04/02 01:18:06;;;;;;;4.05;3.27;;;;;;;5.72;67.02;101088.88;5012944;57;1134597;-80
2021/04/02 01:23:36;;;;;;;4.30;3.17;;;;;;;5.66;67.50;101081.29;5011834;57;1134457;-74
2021/04/02 01:29:24;;;;;;;3.87;2.52;;;;;;;5.60;67.64;101077.67;5012102;57;1134600;-79
2021/04/02 01:34:53;;;;;;;8.47;3.90;;;;;;;5.59;67.67;101079.44;5012095;57;1136767;-79
2021/04/02 01:40:23;;;;;;;4.77;3.47;;;;;;;5.63;67.92;101094.58;5011695;57;1134393;-77
2021/04/02 01:45:50;;;;;;;5.47;3.70;;;;;;;5.61;67.87;101101.67;5011489;57;1144024;-75
2021/04/02 01:51:18;;;;;;;4.30;2.87;;;;;;;5.56;67.64;101094.02;5012305;57;1134657;-76
2021/04/02 01:56:47;;;;;;;9.97;5.13;;;;;;;5.44;67.46;101105.55;5011979;56;1134673;-81
2021/04/02 02:02:15;;;;;;;4.72;4.33;;;;;;;5.27;67.47;101106.33;5003228;56;1134549;-79
2021/04/02 02:07:45;;;;;;;5.53;3.47;;;;;;;5.13;67.82;101097.80;5077279;57;1134914;-76
2021/04/02 02:13:14;;;;;;;4.20;3.50;;;;;;;5.11;67.77;101091.77;4992659;57;1134524;-81
2021/04/02 02:18:46;;;;;;;4.63;3.53;;;;;;;5.20;68.00;101086.09;4991422;57;1136617;-75
2021/04/02 02:24:12;;;;;;;7.30;4.27;;;;;;;5.26;67.84;101086.27;4908634;59;1134720;-77
2021/04/02 02:29:39;;;;;;;6.83;4.27;;;;;;;5.27;67.80;101078.80;4909107;59;1134474;-78
2021/04/02 02:35:07;;;;;;;7.83;4.33;;;;;;;5.21;67.61;101077.76;4908926;59;1134561;-75
2021/04/02 02:40:38;;;;;;;6.85;4.20;;;;;;;5.15;67.38;101060.56;4909143;59;1134711;-76
2021/04/02 02:46:05;;;;;;;8.80;5.27;;;;;;;5.14;67.20;101059.31;4909345;59;1134457;-79
2021/04/02 02:51:34;;;;;;;7.60;4.87;;;;;;;5.14;67.27;101065.41;4909267;59;1136764;-75
2021/04/02 02:57:03;;;;;;;10.27;5.77;;;;;;;5.09;67.17;101065.22;4909425;59;1134947;-76
2021/04/02 03:02:29;;;;;;;10.13;5.33;;;;;;;4.82;66.96;101056.40;4896644;59;1136803;-78
2021/04/02 03:08:01;;;;;;;6.90;6.20;;;;;;;4.79;67.54;101063.08;5087799;57;1136601;-77
2021/04/02 03:13:28;;;;;;;9.37;6.40;;;;;;;4.72;67.46;101061.67;5085229;57;1134451;-77
2021/04/02 03:18:57;;;;;;;7.30;6.27;;;;;;;4.67;67.30;101060.16;5055785;57;1134594;-78
2021/04/02 03:24:25;;;;;;;12.87;7.83;;;;;;;4.74;67.42;101062.42;4970414;57;1136738;-76
2021/04/02 03:29:52;;;;;;;10.58;6.90;;;;;;;4.74;67.41;101066.81;5087507;57;1136725;-74
2021/04/02 03:35:20;;;;;;;13.53;8.43;;;;;;;4.68;66.86;101058.79;4970359;57;1136762;-77
2021/04/02 03:40:51;;;;;;;7.97;5.90;;;;;;;4.63;67.20;101059.91;5085753;56;1136716;-76
2021/04/02 03:46:20;;;;;;;6.73;5.40;;;;;;;4.60;66.92;101070.91;5086508;57;1134781;-75
2021/04/02 03:51:51;;;;;;;7.80;6.20;;;;;;;4.43;66.58;101071.27;4962442;56;1134353;-81
2021/04/02 03:57:21;;;;;;;8.90;6.70;;;;;;;4.35;67.11;101067.66;5078039;56;1134628;-78
2021/04/02 04:02:50;;;;;;;13.43;5.10;;;;;;;4.36;67.09;101075.91;5080897;57;1134314;-79
2021/04/02 04:08:17;;;;;;;7.17;5.37;;;;;;;4.26;66.71;101075.08;4907915;56;1136733;-79
2021/04/02 04:13:46;;;;;;;7.30;4.73;;;;;;;4.12;66.40;101075.66;5066436;57;1134513;-80
2021/04/02 04:19:16;;;;;;;7.97;5.50;;;;;;;3.97;66.32;101082.84;5065776;56;1136580;-78
2021/04/02 04:24:48;;;;;;;13.17;7.60;;;;;;;3.89;66.92;101081.83;5064646;57;1134282;-77
2021/04/02 04:30:15;;;;;;;10.03;6.20;;;;;;;3.79;66.82;101083.98;5065278;57;1136244;-78
2021/04/02 04:35:41;;;;;;;8.33;5.87;;;;;;;3.61;66.80;101095.63;4964880;56;1136643;-78
2021/04/02 04:41:08;;;;;;;10.95;6.20;;;;;;;3.45;67.21;101093.63;4974443;57;1134539;-75
2021/04/02 04:46:35;;;;;;;6.17;4.90;;;;;;;3.28;67.63;101096.03;4999746;56;1136632;-78
2021/04/02 04:52:02;;;;;;;16.02;6.20;;;;;;;3.32;68.09;101095.02;4972924;56;1134646;-75
2021/04/02 04:57:32;;;;;;;15.63;7.00;;;;;;;3.22;68.39;101101.48;5031451;56;1136692;-76
2021/04/02 05:02:59;;;;;;;13.73;6.40;;;;;;;3.21;68.96;101106.31;5017734;57;1136914;-75
2021/04/02 05:08:42;;;;;;;11.20;5.00;;;;;;;3.20;69.31;101102.02;5001437;57;1136686;-79
2021/04/02 05:14:11;;;;;;;8.80;4.53;;;;;;;3.22;69.28;101111.08;4959631;57;1136840;-79
2021/04/02 05:19:37;;;;;;;11.27;5.10;;;;;;;3.21;69.32;101111.54;5003008;57;1134696;-73
2021/04/02 05:25:05;;;;;;;5.90;3.83;;;;;;;3.03;69.32;101109.64;5025081;57;1136880;-76
2021/04/02 05:30:31;;;;;;;5.20;4.20;;;;;;;2.87;69.89;101115.88;4858006;58;1134585;-79
2021/04/02 05:35:55;;;;;;;9.47;4.27;;;;;;;2.87;70.69;101114.58;4914627;57;1134583;-80
2021/04/02 05:41:11;;;;;;;8.55;4.97;;;;;;;2.87;70.69;101114.58;4920186;57;1134735;-75
2021/04/02 05:46:23;;;;;;;9.07;5.63;;;;;;;2.89;70.74;101100.16;4898474;59;1134364;-75
2021/04/02 05:51:50;;;;;;;7.73;3.50;;;;;;;3.03;71.26;101093.96;4890058;58;1134670;-77
2021/04/02 05:57:16;;;;;;;13.27;4.03;;;;;;;3.10;70.88;101093.66;4870298;58;1134606;-77
2021/04/02 06:02:43;;;;;;;3.57;2.57;;;;;;;3.06;70.83;101098.59;5001183;57;1136557;-80
2021/04/02 06:08:12;;;;;;;4.83;3.47;;;;;;;2.93;70.79;101091.27;5018119;57;1134903;-74
2021/04/02 06:13:38;;;;;;;9.10;4.43;;;;;;;2.80;70.55;101087.81;4992417;57;1134560;-78
2021/04/02 06:19:09;;;;;;;8.70;3.97;;;;;;;2.76;71.14;101092.73;4945810;57;1134623;-79
2021/04/02 06:24:46;;;;;;;6.30;4.27;;;;;;;2.81;71.16;101082.98;4999635;57;1134220;-78
2021/04/02 06:30:11;;;;;;;8.77;4.57;;;;;;;3.02;71.81;101089.19;4978223;57;1134770;-74
2021/04/02 06:35:43;;;;;;;8.03;4.33;;;;;;;3.30;72.49;101079.84;4991170;57;1134481;-77
2021/04/02 06:41:07;;;;;;;6.30;3.08;;;;;;;3.64;71.87;101086.36;4984532;57;1134586;-74
2021/04/02 06:46:37;;;;;;;4.87;4.37;;;;;;;3.69;70.22;101082.63;4986959;57;1134876;-75
2021/04/02 06:52:03;;;;;;;10.20;2.52;;;;;;;3.67;70.75;101083.59;4981949;57;1134839;-75
2021/04/02 06:57:30;;;;;;;7.20;4.40;;;;;;;3.83;71.16;101090.77;4999339;57;1136907;-78
2021/04/02 07:02:59;;;;;;;14.78;4.65;;;;;;;3.59;70.60;101081.77;4983987;57;1134618;-74
2021/04/02 07:08:42;;;;;;;4.37;3.45;;;;;;;3.40;70.64;101078.56;4978490;56;1136709;-77
2021/04/02 07:14:09;;;;;;;10.13;4.63;;;;;;;3.45;71.89;101079.70;5032968;57;1134534;-75
2021/04/02 07:19:36;;;;;;;8.88;5.47;;;;;;;3.56;71.64;101078.80;5040510;57;1136745;-75
2021/04/02 07:25:03;;;;;;;6.45;4.00;;;;;;;3.72;71.74;101074.66;5034498;57;1134772;-74
2021/04/02 07:30:30;;;;;;;2.30;1.70;;;;;;;3.93;71.50;101070.34;5073052;56;1134540;-76
2021/04/02 07:36:02;;;;;;;6.80;4.53;;;;;;;4.09;70.91;101067.47;5103539;56;1134914;-77
2021/04/02 07:41:27;;;;;;;5.20;3.53;;;;;;;4.21;70.81;101062.17;5052454;55;1134628;-76
2021/04/02 07:47:12;;;;;;;6.63;3.77;;;;;;;4.49;70.68;101060.52;5080547;56;1134562;-78
2021/04/02 07:52:42;;;;;;;4.87;3.60;;;;;;;4.69;70.04;101070.13;5081894;57;1134500;-77
2021/04/02 07:58:08;;;;;;;9.57;3.47;;;;;;;4.95;69.77;101066.71;4858426;59;1134757;-76
2021/04/02 08:03:34;;;;;;;9.33;4.67;;;;;;;5.19;69.42;101062.12;4848278;57;1134494;-75
2021/04/02 08:09:00;;;;;;;5.67;4.63;;;;;;;5.43;69.43;101054.01;4883949;59;1134513;-74
2021/04/02 08:14:31;;;;;;;6.57;4.47;;;;;;;5.68;68.06;101051.89;5108756;56;1134531;-74
2021/04/02 08:20:08;;;;;;;3.37;2.50;;;;;;;5.85;68.95;101049.75;5086174;56;1134550;-76
2021/04/02 08:25:35;;;;;;;6.47;3.23;;;;;;;6.15;67.29;101044.31;4898710;58;1134930;-77
2021/04/02 08:31:00;;;;;;;3.20;2.90;;;;;;;6.31;66.18;101037.34;4981115;58;1134645;-76
2021/04/02 08:36:27;;;;;;;2.20;1.97;;;;;;;6.54;65.48;101032.69;4980515;56;1134664;-76
2021/04/02 08:42:05;;;;;;;2.83;2.40;;;;;;;6.69;63.63;101034.03;5026782;56;1134816;-77
2021/04/02 08:47:30;;;;;;;3.07;2.73;;;;;;;6.88;62.36;101029.92;4984837;57;1134653;-79
2021/04/02 08:53:09;;;;;;;2.00;1.90;;;;;;;6.98;63.06;101033.78;5015720;57;1135020;-81
2021/04/02 08:58:36;;;;;;;1.90;1.80;;;;;;;7.22;60.34;101024.98;4901213;59;1134414;-80
2021/04/02 09:04:01;;;;;;;2.65;2.45;;;;;;;7.32;59.17;101021.41;4900701;58;1135032;-78
2021/04/02 09:09:30;;;;;;;2.40;2.20;;;;;;;7.39;59.70;101017.01;4861570;59;1134454;-78
2021/04/02 09:14:56;;;;;;;2.87;2.20;;;;;;;7.75;59.94;101012.75;5060407;56;1134654;-82
2021/04/02 09:20:23;;;;;;;2.02;1.52;;;;;;;7.92;58.80;101004.34;5101725;55;1134565;-83
2021/04/02 09:25:51;;;;;;;2.80;1.60;;;;;;;8.13;58.17;101003.89;5024886;58;1134429;-79
2021/04/02 09:31:28;;;;;;;6.07;2.10;;;;;;;8.20;58.50;101000.91;4988124;58;1134910;-77
2021/04/02 09:36:53;;;;;;;1.57;1.47;;;;;;;8.35;58.59;100991.64;5043357;58;1134657;-79
2021/04/02 09:42:19;;;;;;;2.37;1.87;;;;;;;8.42;57.23;100988.14;5024189;58;1134592;-79
2021/04/02 09:47:50;;;;;;;5.03;1.60;;;;;;;8.46;57.62;100979.11;4932311;58;1134674;-77
2021/04/02 09:53:16;;;;;;;2.80;2.20;;;;;;;8.71;59.22;100974.00;4926120;58;1134567;-79
2021/04/02 09:58:42;;;;;;;5.28;2.02;;;;;;;8.89;57.50;100955.33;5082469;57;1134520;-79
2021/04/02 10:04:09;;;;;;;2.08;1.87;;;;;;;9.04;56.96;100951.23;4874984;58;1134761;-84
2021/04/02 10:09:35;;;;;;;2.33;1.90;;;;;;;9.31;56.99;100934.58;4943051;57;1134473;-75
2021/04/02 10:15:00;;;;;;;2.75;2.08;;;;;;;9.25;54.47;100942.89;4916742;57;1134629;-79
2021/04/02 10:20:25;;;;;;;5.70;3.50;;;;;;;9.30;54.74;100932.41;4891206;58;1134633;-76
2021/04/02 10:25:50;;;;;;;6.47;3.67;;;;;;;9.52;56.08;100936.62;4834640;58;1134866;-80
2021/04/02 10:31:16;;;;;;;6.03;4.33;;;;;;;9.78;53.74;100924.78;4821574;60;1136784;-80
2021/04/02 10:36:42;;;;;;;5.83;3.47;;;;;;;9.80;54.58;100914.95;4936479;57;1136924;-78
2021/04/02 10:42:07;;;;;;;5.08;3.25;;;;;;;9.92;51.55;100911.50;4972525;57;1136587;-75
2021/04/02 10:47:33;;;;;;;1.97;1.47;;;;;;;10.18;53.33;100905.28;4896479;58;1136794;-76
2021/04/02 10:53:00;;;;;;;2.10;0.97;;;;;;;10.29;50.44;100893.95;4898573;59;1138661;-74
2021/04/02 10:58:25;;;;;;;4.07;2.37;;;;;;;10.25;47.65;100895.11;4902709;58;1138812;-75
2021/04/02 11:03:51;;;;;;;0.83;0.83;;;;;;;10.36;48.56;100885.97;4915446;58;1138611;-79
2021/04/02 11:09:17;;;;;;;3.17;1.30;;;;;;;10.48;47.38;100881.13;4897847;58;1138848;-74
2021/04/02 11:14:47;;;;;;;2.27;1.50;;;;;;;10.66;48.78;100871.03;4923197;58;1138763;-78
2021/04/02 11:20:20;;;;;;;4.13;1.80;;;;;;;10.74;47.31;100869.98;5009623;57;1138864;-76
2021/04/02 11:25:50;;;;;;;1.60;1.50;;;;;;;10.89;49.19;100870.19;5016499;57;1138918;-78
2021/04/02 11:31:16;;;;;;;2.13;1.80;;;;;;;10.98;46.75;100858.58;4899834;57;1138677;-77
2021/04/02 11:36:41;;;;;;;3.13;1.73;;;;;;;10.97;47.89;100849.79;4977885;57;1138649;-76
2021/04/02 11:42:08;;;;;;;3.77;3.10;;;;;;;11.02;47.18;100848.95;4999498;57;1138620;-77
2021/04/02 11:47:33;;;;;;;4.73;1.87;;;;;;;11.27;51.49;100846.18;5095755;56;1138403;-77
2021/04/02 11:52:59;;;;;;;4.93;2.70;;;;;;;11.51;46.83;100838.16;5026329;56;1138912;-76
2021/04/02 11:58:25;;;;;;;3.77;2.80;;;;;;;11.49;46.33;100838.76;5030558;56;1139228;-76
2021/04/02 12:03:51;;;;;;;4.40;2.37;;;;;;;11.42;46.88;100834.91;5061597;57;1138653;-77
2021/04/02 12:09:16;;;;;;;4.53;2.30;;;;;;;11.46;48.78;100830.20;5009689;56;1138769;-76
2021/04/02 12:14:42;;;;;;;2.00;1.80;;;;;;;11.66;48.36;100834.81;5042100;57;1138778;-77
2021/04/02 12:20:12;;;;;;;2.67;2.05;;;;;;;11.77;46.15;100832.69;5013726;57;1138935;-75
2021/04/02 12:25:37;;;;;;;3.60;2.30;;;;;;;11.77;46.00;100818.11;5051175;56;1138661;-79
2021/04/02 12:31:03;;;;;;;3.22;1.65;;;;;;;11.76;46.76;100821.28;5022872;57;1139009;-76
2021/04/02 12:36:28;;;;;;;2.63;1.20;;;;;;;11.92;46.56;100801.02;5046921;57;1138670;-78
2021/04/02 12:41:53;;;;;;;1.33;1.00;;;;;;;12.14;45.27;100789.56;5048035;57;1138606;-77
2021/04/02 12:47:18;;;;;;;4.40;1.63;;;;;;;12.32;44.05;100784.97;4951811;57;1138648;-79
2021/04/02 12:52:45;;;;;;;1.95;1.82;;;;;;;12.40;42.20;100760.45;4852266;58;1138736;-79
2021/04/02 12:58:11;;;;;;;2.30;0.93;;;;;;;12.37;40.21;100762.06;5048424;57;1138799;-77
2021/04/02 13:03:38;;;;;;;3.87;1.90;;;;;;;12.11;42.43;100755.34;5038761;57;1138609;-77
2021/04/02 13:09:04;;;;;;;1.30;0.80;;;;;;;12.28;39.65;100732.28;5011118;57;1138919;-77
2021/04/02 13:14:31;;;;;;;1.15;0.90;;;;;;;12.26;38.67;100720.47;4993384;57;1138972;-81
2021/04/02 13:19:57;;;;;;;1.43;1.20;;;;;;;12.27;38.30;100710.70;5000713;57;1138687;-79
2021/04/02 13:25:24;;;;;;;1.77;1.33;;;;;;;12.02;39.33;100706.56;5096096;57;1138898;-76
2021/04/02 13:30:50;;;;;;;0.90;0.90;;;;;;;11.93;40.33;100701.98;5096885;56;1138962;-77
2021/04/02 13:36:21;;;;;;;3.33;2.55;;;;;;;11.73;39.97;100710.67;5062442;57;1138646;-77
2021/04/02 13:41:42;;;;;;;1.67;0.90;;;;;;;11.43;39.91;100701.53;5056815;57;1138966;-79
2021/04/02 13:52:21;;;;;;;64.67;58.07;;;;;;;11.80;39.33;100688.03;5206360;55;46258;-75
2021/04/02 13:57:48;;;;;;;104.20;92.90;;;;;;;11.67;39.15;100687.30;4993089;57;1138431;-76
2021/04/02 14:03:13;;;;;;;97.10;63.83;;;;;;;11.74;39.57;100680.56;4885117;58;1144968;-76
2021/04/02 14:08:39;;;;;;;2.67;1.63;;;;;;;11.91;36.39;100670.81;4849798;58;1142749;-74
2021/04/02 14:14:05;;;;;;;1.40;0.93;;;;;;;12.07;38.42;100671.22;4985131;57;1138860;-76
2021/04/02 14:19:30;;;;;;;1.00;0.80;;;;;;;12.09;37.96;100671.10;4984781;58;1138789;-74
2021/04/02 14:24:55;;;;;;;1.87;1.53;;;;;;;12.10;37.72;100669.66;4756290;59;1138735;-74
2021/04/02 14:30:25;;;;;;;3.67;2.00;;;;;;;12.20;39.45;100653.38;4881812;57;1139358;-78
2021/04/02 14:35:51;;;;;;;4.83;2.80;;;;;;;12.29;39.32;100635.36;4876078;59;1138821;-75
2021/04/02 14:41:15;;;;;;;2.08;1.87;;;;;;;12.31;39.36;100640.55;4851025;59;1138911;-75
2021/04/02 14:46:40;;;;;;;5.53;2.30;;;;;;;12.33;38.74;100639.94;4859722;58;1138922;-76
2021/04/02 14:52:06;;;;;;;12.13;4.50;;;;;;;12.26;38.96;100628.98;4846030;58;1138989;-76
2021/04/02 14:57:34;;;;;;;3.43;2.53;;;;;;;12.42;38.92;100629.87;4769876;59;1140870;-78
2021/04/02 15:02:59;;;;;;;5.30;3.30;;;;;;;12.42;37.24;100625.89;4848246;59;1138750;-78
2021/04/02 15:08:24;;;;;;;8.30;4.57;;;;;;;12.40;38.16;100621.69;4817108;59;1138704;-79
2021/04/02 15:13:49;;;;;;;5.63;3.93;;;;;;;12.28;38.05;100615.11;4915115;58;1138801;-76
2021/04/02 15:19:14;;;;;;;4.45;2.60;;;;;;;12.29;39.23;100603.54;4868437;59;1138786;-78
2021/04/02 15:24:39;;;;;;;6.83;5.10;;;;;;;12.31;39.43;100592.80;4968410;58;1138787;-79
2021/04/02 15:30:08;;;;;;;18.13;11.13;;;;;;;12.39;38.50;100595.64;5022021;58;1138927;-75
2021/04/02 15:35:33;;;;;;;10.70;5.83;;;;;;;12.15;39.07;100594.56;5025318;57;1142777;-77
2021/04/02 15:40:59;;;;;;;9.23;5.40;;;;;;;11.86;39.63;100596.13;5013066;58;1140909;-75
2021/04/02 15:46:32;;;;;;;4.50;3.30;;;;;;;11.53;40.27;100591.71;5025015;58;1138852;-77
2021/04/02 15:51:57;;;;;;;10.67;6.80;;;;;;;10.98;41.28;100593.45;5000359;57;1138865;-75
2021/04/02 15:57:23;;;;;;;7.43;3.87;;;;;;;10.98;41.28;100593.45;4940963;58;1140851;-76
2021/04/02 16:02:50;;;;;;;6.07;4.17;;;;;;;10.91;41.54;100594.88;4941360;58;1138611;-74
2021/04/02 16:08:16;;;;;;;7.92;3.85;;;;;;;10.70;41.05;100592.55;4939838;58;1138656;-80
2021/04/02 16:13:41;;;;;;;6.73;4.17;;;;;;;10.54;41.24;100599.02;4940808;58;1138512;-80
2021/04/02 16:19:09;;;;;;;11.35;6.50;;;;;;;10.38;42.14;100594.55;4941351;58;1138828;-79
2021/04/02 16:24:35;;;;;;;11.87;4.83;;;;;;;10.37;42.49;100587.58;4940188;58;1140892;-80
2021/04/02 16:30:03;;;;;;;26.20;12.70;;;;;;;10.35;42.93;100584.20;4957921;58;1140866;-80
2021/04/02 16:35:29;;;;;;;12.97;6.37;;;;;;;10.30;42.42;100579.73;4940062;58;1142814;-80
2021/04/02 16:40:54;;;;;;;13.13;7.37;;;;;;;10.28;42.73;100580.80;4926929;57;1140894;-78
2021/04/02 16:46:20;;;;;;;8.57;6.00;;;;;;;10.20;43.23;100574.79;4962894;58;1140559;-77
2021/04/02 16:51:46;;;;;;;39.93;7.47;;;;;;;10.15;43.73;100555.27;4954946;58;1138927;-80
2021/04/02 16:57:12;;;;;;;11.83;7.33;;;;;;;10.16;44.11;100556.11;4851346;58;1141307;-78
2021/04/02 17:02:38;;;;;;;22.40;10.80;;;;;;;10.19;44.43;100559.88;4848365;59;1140997;-78
2021/04/02 17:08:05;;;;;;;20.00;8.47;;;;;;;10.20;44.58;100548.36;4849325;58;1143384;-78
2021/04/02 17:13:31;;;;;;;18.93;10.10;;;;;;;10.20;44.77;100550.52;4959857;58;1140845;-76
2021/04/02 17:18:57;;;;;;;264.60;93.00;;;;;;;10.15;44.82;100547.34;5011340;57;1142880;-78
2021/04/02 17:24:23;;;;;;;95.60;47.13;;;;;;;10.12;45.03;100544.92;5015082;57;1144923;-75
2021/04/02 17:29:49;;;;;;;69.80;34.60;;;;;;;10.14;45.50;100522.34;5001649;57;1143075;-75
2021/04/02 17:35:16;;;;;;;44.35;27.70;;;;;;;10.14;45.50;100522.34;5030801;57;1142954;-76
2021/04/02 17:40:41;;;;;;;18.30;10.43;;;;;;;10.10;45.59;100522.20;5006226;57;1142766;-74
2021/04/02 17:46:07;;;;;;;25.87;12.93;;;;;;;10.01;46.13;100527.72;5011703;57;1143240;-76
2021/04/02 17:51:34;;;;;;;21.20;11.50;;;;;;;9.97;46.78;100523.61;5024227;57;1142960;-75
2021/04/02 17:57:00;;;;;;;19.70;10.30;;;;;;;9.95;47.04;100515.44;4996439;57;1140882;-73
2021/04/02 18:02:25;;;;;;;13.37;7.37;;;;;;;9.90;47.43;100529.01;4993233;57;1140792;-73
2021/04/02 18:07:53;;;;;;;10.87;6.43;;;;;;;9.81;47.74;100533.63;4994154;58;1138816;-74
2021/04/02 18:13:17;;;;;;;15.95;8.23;;;;;;;9.69;48.06;100530.59;4996049;57;1139129;-73
2021/04/02 18:18:43;;;;;;;20.07;10.53;;;;;;;9.59;48.45;100526.95;5000662;57;1138707;-74
2021/04/02 18:23:50;;;;;;;47.20;17.90;;;;;;;9.52;48.80;100530.50;5013380;57;1138617;-75
2021/04/02 18:28:57;;;;;;;24.60;8.27;;;;;;;9.48;48.89;100527.23;4994445;58;1138658;-75
2021/04/02 18:34:05;;;;;;;16.95;7.62;;;;;;;9.38;49.02;100529.34;5042973;58;1136306;-76
2021/04/02 18:39:12;;;;;;;12.85;5.53;;;;;;;9.24;49.22;100528.17;5014689;57;1136833;-78
2021/04/02 18:44:20;;;;;;;27.67;9.10;;;;;;;9.06;49.92;100538.24;5029027;58;1148025;-77
2021/04/02 18:49:28;;;;;;;23.23;11.77;;;;;;;8.77;51.95;100545.56;5029085;57;1137099;-77
2021/04/02 18:54:34;;;;;;;12.70;7.13;;;;;;;8.53;53.05;100552.08;5075507;56;1138575;-76
2021/04/02 18:59:42;;;;;;;12.50;6.63;;;;;;;8.35;54.01;100558.13;5032879;57;1136210;-76
2021/04/02 19:04:50;;;;;;;8.85;5.95;;;;;;;8.25;55.62;100561.45;5036121;56;1136261;-76
2021/04/02 19:09:57;;;;;;;8.93;5.60;;;;;;;8.14;56.58;100562.16;5053072;57;1134300;-75
2021/04/02 19:15:08;;;;;;;27.95;15.43;;;;;;;8.06;56.87;100561.84;5046583;57;1134661;-77
2021/04/02 19:20:16;;;;;;;27.55;12.90;;;;;;;8.07;56.48;100547.25;4932480;57;1139000;-78
2021/04/02 19:25:23;;;;;;;8.40;4.95;;;;;;;8.22;56.92;100557.23;4980476;57;1138666;-77
2021/04/02 19:30:30;;;;;;;19.50;7.40;;;;;;;8.06;57.54;100558.73;4743296;60;1134443;-81
2021/04/02 19:35:37;;;;;;;14.20;7.70;;;;;;;8.00;57.57;100556.96;4939949;57;1136519;-79
2021/04/02 19:40:45;;;;;;;11.67;6.33;;;;;;;8.01;57.79;100559.97;4995910;57;1137052;-79
2021/04/02 19:45:51;;;;;;;10.87;6.10;;;;;;;8.02;58.19;100557.23;5015221;57;1136540;-78
2021/04/02 19:50:58;;;;;;;11.70;6.30;;;;;;;7.94;57.70;100563.97;5000810;57;1136514;-80
2021/04/02 19:56:07;;;;;;;18.64;8.38;;;;;;;7.82;57.44;100566.06;5020114;57;1136363;-80
2021/04/02 20:01:14;;;;;;;14.73;7.30;;;;;;;7.70;57.75;100565.09;5058396;55;1136685;-78
2021/04/02 20:06:20;;;;;;;16.00;7.97;;;;;;;7.60;57.74;100556.95;5140878;55;1136528;-79
2021/04/02 20:11:27;;;;;;;17.33;7.53;;;;;;;7.58;57.94;100556.20;5080519;55;1136788;-81
2021/04/02 20:16:36;;;;;;;22.80;10.33;;;;;;;7.60;58.13;100554.79;5095639;56;1136687;-79
2021/04/02 20:21:43;;;;;;;23.03;9.23;;;;;;;7.59;58.11;100559.68;5111930;55;1138673;-81
2021/04/02 20:26:53;;;;;;;10.70;4.67;;;;;;;7.58;57.86;100560.62;5106996;56;1136674;-81
2021/04/02 20:32:00;;;;;;;14.57;5.77;;;;;;;7.54;57.85;100570.96;5104867;55;1136757;-81
2021/04/02 20:37:26;;;;;;;21.90;9.38;;;;;;;7.47;57.75;100576.27;4959290;57;1136584;-77
2021/04/02 20:42:53;;;;;;;26.53;11.60;;;;;;;7.31;57.47;100577.70;5063424;56;1136693;-78
2021/04/02 20:48:20;;;;;;;15.38;5.28;;;;;;;7.19;57.60;100576.66;5062118;57;1138961;-79
2021/04/02 20:53:45;;;;;;;27.03;9.30;;;;;;;7.17;57.86;100589.09;5063041;57;1136539;-78
2021/04/02 20:59:11;;;;;;;21.77;6.85;;;;;;;7.08;57.65;100588.80;5063373;57;1136854;-80
2021/04/02 21:04:37;;;;;;;30.43;9.90;;;;;;;7.03;57.75;100587.29;5062906;57;1136633;-78
2021/04/02 21:10:03;;;;;;;19.77;6.00;;;;;;;6.95;57.87;100580.36;5062163;57;1136600;-78
2021/04/02 21:15:29;;;;;;;16.00;5.77;;;;;;;6.90;58.05;100588.98;5062632;57;1136725;-77
2021/04/02 21:20:54;;;;;;;15.27;5.90;;;;;;;6.93;58.33;100580.08;4916556;57;1136861;-80
2021/04/02 21:26:20;;;;;;;20.37;5.30;;;;;;;6.99;58.27;100573.14;4916123;58;1136649;-78
2021/04/02 21:31:46;;;;;;;18.07;5.90;;;;;;;7.06;58.22;100574.43;4916408;58;1136753;-79
2021/04/02 21:37:12;;;;;;;14.10;5.17;;;;;;;6.98;58.17;100571.44;4916015;58;1136836;-80
2021/04/02 21:42:38;;;;;;;16.07;6.27;;;;;;;6.94;58.39;100569.94;4915968;58;1136815;-80
2021/04/02 21:48:05;;;;;;;16.13;6.37;;;;;;;6.96;58.55;100574.63;5062205;57;1136659;-79
2021/04/02 21:53:31;;;;;;;11.40;5.60;;;;;;;6.97;58.62;100567.13;5062699;57;1136742;-79
2021/04/02 21:58:57;;;;;;;17.43;6.23;;;;;;;7.08;58.74;100562.50;5062977;57;1136735;-80
2021/04/02 22:04:22;;;;;;;13.65;3.77;;;;;;;7.13;58.77;100554.71;5075793;57;1136603;-80
2021/04/02 22:09:49;;;;;;;28.87;7.57;;;;;;;7.13;59.08;100553.40;5080701;57;1136528;-79
2021/04/02 22:15:17;;;;;;;13.85;5.40;;;;;;;7.00;58.91;100552.48;5083425;57;1136683;-80
2021/04/02 22:20:42;;;;;;;28.07;8.27;;;;;;;6.98;59.29;100551.25;5082794;57;1136535;-81
2021/04/02 22:26:12;;;;;;;28.10;9.33;;;;;;;6.85;59.40;100556.91;5096236;57;1136562;-79
2021/04/02 22:31:37;;;;;;;16.83;5.80;;;;;;;6.78;59.73;100554.73;5076530;57;1136302;-80
2021/04/02 22:37:03;;;;;;;22.73;7.63;;;;;;;6.68;60.12;100547.42;5083475;56;1136516;-81
2021/04/02 22:42:28;;;;;;;23.43;7.60;;;;;;;6.66;60.01;100549.29;5082940;57;1136629;-80
2021/04/02 22:47:54;;;;;;;17.63;7.63;;;;;;;6.70;60.10;100546.86;5077260;57;1136432;-78
2021/04/02 22:53:25;;;;;;;22.13;7.95;;;;;;;6.68;60.16;100545.26;5081777;57;1136812;-78
2021/04/02 22:58:52;;;;;;;25.57;8.30;;;;;;;6.63;60.26;100544.68;5082979;57;1136488;-77
2021/04/02 23:04:17;;;;;;;17.25;5.35;;;;;;;6.60;60.56;100551.43;5080120;57;1136807;-79
2021/04/02 23:09:43;;;;;;;24.67;8.33;;;;;;;6.59;60.72;100556.31;5072704;56;1136644;-76
2021/04/02 23:15:13;;;;;;;23.98;7.30;;;;;;;6.54;60.81;100561.86;5090726;56;1136819;-77
2021/04/02 23:20:38;;;;;;;15.60;6.27;;;;;;;6.47;61.18;100560.99;5064113;57;1136805;-76
2021/04/02 23:26:04;;;;;;;15.23;5.67;;;;;;;6.41;61.46;100566.16;5071980;57;1136602;-75
2021/04/02 23:31:30;;;;;;;9.37;3.77;;;;;;;6.32;61.71;100566.23;5072855;57;1136772;-75
2021/04/02 23:36:56;;;;;;;17.80;5.57;;;;;;;6.30;61.92;100573.34;5074026;57;1135152;-76
2021/04/02 23:42:22;;;;;;;16.30;5.00;;;;;;;6.23;62.05;100565.94;5071672;57;1136690;-77
2021/04/02 23:47:48;;;;;;;23.00;7.67;;;;;;;6.20;61.92;100564.80;5076779;56;1136655;-77
2021/04/02 23:53:14;;;;;;;11.80;3.90;;;;;;;6.15;62.00;100569.00;5072696;56;1137017;-75
2021/04/02 23:58:39;;;;;;;18.60;4.17;;;;;;;6.04;62.33;100571.88;5072240;57;1136562;-77
